Time;durP1;ratioP1;P1;durP2;ratioP2;P2;SDS_P1;SDS_P2;PMS_P1;PMS_P2;Temp;Humidity;BMP_temperature;BMP_pressure;BME280_temperature;BME280_humidity;BME280_pressure;Samples;Min_cycle;Max_cycle;Signal;HPM_P1;HPM_P2
2023/10/17 00:01:00;;;;;;;5.32;1.95;;;;;;;4.06;71.60;97047.31;5134550;27;20050;-62
2023/10/17 00:03:27;;;;;;;6.88;1.70;;;;;;;4.06;71.27;97046.47;5134127;27;20074;-62
2023/10/17 00:05:56;;;;;;;3.25;1.65;;;;;;;4.02;71.17;97043.88;5134366;27;20046;-61
2023/10/17 00:08:25;;;;;;;2.40;1.75;;;;;;;3.98;71.55;97042.19;5134462;27;20043;-62
2023/10/17 00:10:53;;;;;;;3.60;1.55;;;;;;;3.86;71.84;97032.75;5134465;27;20043;-62
2023/10/17 00:13:31;;;;;;;2.83;2.00;;;;;;;3.82;72.16;97033.59;5134461;27;20149;-62
2023/10/17 00:15:59;;;;;;;5.88;2.08;;;;;;;3.77;72.01;97038.78;5134221;27;20047;-62
2023/10/17 00:18:26;;;;;;;2.97;1.77;;;;;;;3.71;72.11;97033.66;5134456;27;20092;-62
2023/10/17 00:21:09;;;;;;;5.47;1.90;;;;;;;3.61;72.46;97025.03;5134423;27;20069;-62
2023/10/17 00:23:36;;;;;;;6.07;1.98;;;;;;;3.58;72.74;97029.34;5134251;27;20074;-62
2023/10/17 00:26:04;;;;;;;3.13;1.80;;;;;;;3.60;72.50;97027.63;5134112;27;20087;-62
2023/10/17 00:28:33;;;;;;;2.05;1.80;;;;;;;3.63;72.42;97025.03;5134010;27;20051;-62
2023/10/17 00:31:00;;;;;;;2.40;1.67;;;;;;;3.63;72.30;97025.91;5133883;27;20054;-62
2023/10/17 00:33:28;;;;;;;2.92;1.90;;;;;;;3.61;72.09;97024.19;5134118;27;20043;-62
2023/10/17 00:35:58;;;;;;;3.28;2.00;;;;;;;3.59;71.94;97018.13;5133988;28;20043;-62
2023/10/17 00:38:29;;;;;;;6.40;1.88;;;;;;;3.56;72.34;97021.59;5134021;27;20043;-61
2023/10/17 00:40:56;;;;;;;5.05;1.67;;;;;;;3.54;72.36;97019.00;5134049;27;20043;-62
2023/10/17 00:43:27;;;;;;;2.38;1.55;;;;;;;3.55;72.02;97017.28;5134085;27;20045;-62
2023/10/17 00:45:53;;;;;;;;;;;;;;;3.57;71.58;97018.13;5134414;27;20051;-62
2023/10/17 00:48:22;;;;;;;1.70;1.60;;;;;;;3.53;70.80;97014.69;5133900;27;19926;-62
2023/10/17 00:50:53;;;;;;;3.60;1.67;;;;;;;3.48;71.35;97018.16;5133885;27;20043;-62
2023/10/17 00:53:21;;;;;;;2.53;1.50;;;;;;;3.41;71.37;97012.97;5133902;27;20043;-62
2023/10/17 00:55:55;;;;;;;2.83;1.65;;;;;;;3.40;71.23;97008.69;5133914;27;20430;-61
2023/10/17 00:58:24;;;;;;;5.25;1.42;;;;;;;3.40;71.85;97005.22;5133841;27;20094;-62
2023/10/17 01:00:58;;;;;;;2.42;1.48;;;;;;;3.41;71.77;97006.97;5133792;28;20051;-62
2023/10/17 01:03:29;;;;;;;2.65;1.60;;;;;;;3.33;72.65;97008.69;5133843;27;20070;-62
2023/10/17 01:06:10;;;;;;;6.32;1.45;;;;;;;3.31;72.63;97010.44;5133843;27;20047;-62
2023/10/17 01:08:40;;;;;;;1.52;1.33;;;;;;;3.29;72.39;97013.88;5133670;27;20429;-62
2023/10/17 01:11:15;;;;;;;3.10;1.70;;;;;;;3.29;72.22;97011.28;5133729;28;20047;-61
2023/10/17 01:13:43;;;;;;;2.17;1.60;;;;;;;3.32;72.16;97010.44;5133703;27;20051;-62
2023/10/17 01:16:15;;;;;;;3.95;1.70;;;;;;;3.33;71.69;97013.88;5137398;27;20099;-61
2023/10/17 01:18:44;;;;;;;1.75;1.55;;;;;;;3.33;71.32;97016.44;5137618;27;20459;-62
2023/10/17 01:21:13;;;;;;;2.75;1.60;;;;;;;3.33;71.19;97016.44;5137693;27;20043;-62
2023/10/17 01:23:41;;;;;;;2.28;1.48;;;;;;;3.30;71.49;97017.31;5137598;27;20059;-62
2023/10/17 01:26:14;;;;;;;2.40;1.40;;;;;;;3.25;71.71;97012.16;5137430;27;20070;-62
2023/10/17 01:28:46;;;;;;;3.17;1.52;;;;;;;3.21;72.06;97015.63;5137453;27;20130;-62
2023/10/17 01:31:16;;;;;;;1.85;1.23;;;;;;;3.23;72.11;97011.31;5137205;27;20058;-62
2023/10/17 01:33:44;;;;;;;2.20;1.60;;;;;;;3.18;72.53;97002.69;5137310;27;20043;-62
2023/10/17 01:36:12;;;;;;;2.53;1.77;;;;;;;3.15;72.58;96995.81;5137296;27;20039;-62
2023/10/17 01:38:42;;;;;;;4.85;1.55;;;;;;;3.14;72.50;96994.09;5137298;27;20100;-62
2023/10/17 01:41:11;;;;;;;2.05;1.58;;;;;;;3.10;72.71;97004.44;5137296;27;20071;-62
2023/10/17 01:43:41;;;;;;;5.17;1.33;;;;;;;3.05;73.15;96999.25;5137255;27;20043;-62
2023/10/17 01:46:11;;;;;;;3.67;1.50;;;;;;;3.02;72.87;97000.13;5137043;27;20051;-62
2023/10/17 01:48:38;;;;;;;2.03;1.52;;;;;;;2.98;73.62;97005.31;5137054;27;20100;-62
2023/10/17 01:51:12;;;;;;;5.35;1.75;;;;;;;2.95;73.77;97005.28;5136933;27;20481;-62
2023/10/17 01:53:40;;;;;;;1.98;1.67;;;;;;;2.90;74.01;97001.00;5137038;27;20049;-62
2023/10/17 01:56:13;;;;;;;2.72;1.48;;;;;;;2.86;74.24;96998.41;5137002;27;20050;-62
2023/10/17 01:58:46;;;;;;;2.65;1.85;;;;;;;2.84;74.30;96993.25;5136792;27;20553;-62
2023/10/17 02:01:16;;;;;;;5.40;1.73;;;;;;;2.79;74.56;96992.34;5136814;27;20118;-61
2023/10/17 02:03:43;;;;;;;;;;;;;;;2.82;74.46;96992.38;5137227;27;20047;-63
2023/10/17 02:06:15;;;;;;;3.75;1.92;;;;;;;2.77;74.40;96994.94;5136780;27;19920;-63
2023/10/17 02:08:44;;;;;;;7.47;2.17;;;;;;;2.78;74.02;96990.66;5136674;27;20407;-63
2023/10/17 02:11:18;;;;;;;7.47;1.50;;;;;;;2.82;73.77;96996.66;5136711;27;20103;-63
2023/10/17 02:13:48;;;;;;;1.75;1.40;;;;;;;2.83;73.63;96998.41;5136612;27;20457;-63
2023/10/17 02:16:16;;;;;;;2.85;1.40;;;;;;;2.78;73.91;96998.41;5136567;27;20521;-62
2023/10/17 02:18:44;;;;;;;2.42;1.65;;;;;;;2.77;73.94;97000.13;5136508;27;20054;-63
2023/10/17 02:21:12;;;;;;;3.67;1.48;;;;;;;2.76;73.89;97000.09;5136500;27;20542;-62
2023/10/17 02:23:48;;;;;;;5.22;1.55;;;;;;;2.73;73.88;96994.94;5136370;27;20043;-63
2023/10/17 02:26:21;;;;;;;4.15;1.33;;;;;;;2.70;73.92;96995.81;5136065;27;20428;-62
2023/10/17 02:28:51;;;;;;;2.97;1.80;;;;;;;2.66;73.91;96986.34;5136324;27;20047;-62
2023/10/17 02:31:22;;;;;;;2.55;1.83;;;;;;;2.59;74.52;96992.38;5136059;27;20046;-63
2023/10/17 02:33:50;;;;;;;3.22;1.58;;;;;;;2.64;74.49;96986.34;5136272;27;20043;-63
2023/10/17 02:36:17;;;;;;;3.30;1.50;;;;;;;2.55;74.53;96978.56;5136258;27;20092;-63
2023/10/17 02:38:44;;;;;;;3.20;2.03;;;;;;;2.54;74.34;96992.34;5135882;27;20055;-62
2023/10/17 02:41:18;;;;;;;2.45;1.60;;;;;;;2.50;75.00;96998.38;5136115;27;20138;-63
2023/10/17 02:43:46;;;;;;;3.83;1.77;;;;;;;2.46;75.33;96999.22;5135950;27;20135;-63
2023/10/17 02:46:15;;;;;;;3.50;1.73;;;;;;;2.43;74.95;96994.91;5135970;27;20197;-63
2023/10/17 02:48:42;;;;;;;2.00;1.60;;;;;;;2.42;75.09;97000.94;5135950;27;20054;-62
2023/10/17 02:51:33;;;;;;;7.40;1.63;;;;;;;2.37;74.81;97000.94;5135835;27;20489;-63
2023/10/17 02:54:05;;;;;;;3.03;1.60;;;;;;;2.38;74.81;97007.81;5135789;27;20046;-62
2023/10/17 02:56:36;;;;;;;4.90;1.80;;;;;;;2.36;75.02;97012.13;5135731;27;20050;-63
2023/10/17 02:59:06;;;;;;;2.67;1.80;;;;;;;2.25;75.67;97006.06;5135613;27;20051;-63
2023/10/17 03:01:37;;;;;;;3.10;1.70;;;;;;;2.23;75.42;97012.94;5135651;27;20043;-62
2023/10/17 03:04:09;;;;;;;5.00;1.50;;;;;;;2.17;75.80;97010.34;5135671;27;20450;-63
2023/10/17 03:06:40;;;;;;;5.38;1.98;;;;;;;2.08;76.14;97006.88;5135606;27;20043;-63
2023/10/17 03:09:32;;;;;;;2.35;1.80;;;;;;;2.15;75.97;97002.59;5135558;27;20051;-63
2023/10/17 03:12:07;;;;;;;4.32;1.58;;;;;;;2.17;75.77;97002.59;5135434;27;20118;-63
2023/10/17 03:14:39;;;;;;;3.75;1.80;;;;;;;2.16;76.06;96993.16;5135346;27;20546;-63
2023/10/17 03:17:08;;;;;;;4.35;1.90;;;;;;;2.07;76.20;96993.94;5135329;27;20039;-63
2023/10/17 03:19:36;;;;;;;3.55;2.13;;;;;;;1.95;76.85;96992.19;5135372;27;20047;-62
2023/10/17 03:22:16;;;;;;;7.68;1.90;;;;;;;1.97;77.37;96985.31;5135311;27;20540;-63
2023/10/17 03:24:44;;;;;;;2.58;1.80;;;;;;;1.98;76.42;96987.91;5135384;27;20075;-63
2023/10/17 03:27:11;;;;;;;2.10;1.63;;;;;;;2.01;76.40;96987.94;5135222;27;20051;-61
2023/10/17 03:29:42;;;;;;;2.00;1.67;;;;;;;1.96;76.81;96988.78;5135110;27;20124;-63
2023/10/17 03:32:12;;;;;;;3.83;1.90;;;;;;;1.92;77.34;96989.63;5134786;27;20047;-63
2023/10/17 03:34:44;;;;;;;3.53;1.58;;;;;;;1.98;77.49;96989.63;5135077;27;20054;-63
2023/10/17 03:39:54;;;;;;;3.33;2.53;;;;;;;1.97;78.34;96980.16;5134690;27;20046;-62
2023/10/17 03:42:41;;;;;;;6.10;1.92;;;;;;;1.92;78.66;96981.88;5134880;27;20484;-62
2023/10/17 03:45:16;;;;;;;3.92;1.45;;;;;;;1.97;78.33;96983.63;5134793;27;20050;-63
2023/10/17 03:47:49;;;;;;;3.05;1.92;;;;;;;2.00;79.06;96972.44;5134805;27;20049;-63
2023/10/17 03:52:58;;;;;;;6.35;1.90;;;;;;;2.04;78.58;96968.16;5134513;27;20051;-63
2023/10/17 03:55:25;;;;;;;2.15;1.90;;;;;;;1.95;78.86;96972.41;5134627;27;20050;-61
2023/10/17 03:57:54;;;;;;;2.17;1.98;;;;;;;1.89;79.60;96962.06;5134490;27;20047;-62
2023/10/17 04:00:27;;;;;;;4.30;2.13;;;;;;;1.93;79.32;96962.97;5134590;27;20126;-63
2023/10/17 04:02:56;;;;;;;2.70;1.95;;;;;;;1.97;79.02;96965.56;5134494;27;20078;-62
2023/10/17 04:05:24;;;;;;;3.28;2.08;;;;;;;2.05;78.17;96969.88;5134507;27;20144;-62
2023/10/17 04:07:54;;;;;;;6.80;2.00;;;;;;;2.12;77.79;96976.78;5134520;27;20051;-62
2023/10/17 04:10:21;;;;;;;3.45;1.90;;;;;;;2.11;78.09;96965.56;5134421;27;20142;-62
2023/10/17 04:13:16;;;;;;;8.18;2.03;;;;;;;2.08;77.93;96973.31;5134477;27;20122;-61
2023/10/17 04:15:42;;;;;;;4.18;1.80;;;;;;;2.07;77.71;96971.59;5134261;27;20536;-62
2023/10/17 04:18:12;;;;;;;4.05;2.30;;;;;;;2.01;77.76;96964.69;5134247;27;20096;-62
2023/10/17 04:20:42;;;;;;;4.05;1.80;;;;;;;2.02;78.24;96974.16;5134239;27;20082;-62
2023/10/17 04:23:21;;;;;;;3.58;2.00;;;;;;;2.08;77.61;96977.63;5134299;27;20046;-62
2023/10/17 04:25:54;;;;;;;5.18;2.03;;;;;;;2.11;77.38;96980.22;5134341;27;20399;-62
2023/10/17 04:28:26;;;;;;;6.30;2.03;;;;;;;2.10;77.06;96979.34;5134080;27;20531;-62
2023/10/17 04:30:57;;;;;;;5.90;2.00;;;;;;;2.09;76.99;96981.94;5134030;27;20049;-62
2023/10/17 04:33:29;;;;;;;7.22;3.10;;;;;;;2.10;76.64;96974.19;5133943;27;20454;-62
2023/10/17 04:35:59;;;;;;;4.75;1.88;;;;;;;2.06;75.95;96980.19;5134153;27;20047;-62
2023/10/17 04:38:36;;;;;;;5.03;2.08;;;;;;;2.00;76.34;96978.47;5134058;27;20047;-62
2023/10/17 04:41:17;;;;;;;2.85;2.03;;;;;;;2.04;76.32;96978.47;5134139;27;20066;-62
2023/10/17 04:43:53;;;;;;;3.85;2.10;;;;;;;2.04;76.58;96976.75;5134109;28;20155;-62
2023/10/17 04:46:25;;;;;;;4.03;2.17;;;;;;;2.11;77.30;96969.91;5134081;28;20049;-62
2023/10/17 04:48:55;;;;;;;2.38;2.00;;;;;;;2.16;76.96;96977.66;5135773;27;20412;-62
2023/10/17 04:51:26;;;;;;;3.37;2.03;;;;;;;2.16;76.90;96980.25;5138434;27;20047;-62
2023/10/17 04:54:03;;;;;;;2.78;2.22;;;;;;;2.11;77.26;96986.22;5138254;27;20092;-62
2023/10/17 04:56:52;;;;;;;6.40;2.15;;;;;;;2.17;77.86;96997.44;5138230;27;20088;-61
2023/10/17 04:59:28;;;;;;;3.85;2.00;;;;;;;2.09;78.70;97002.56;5137816;27;20050;-61
2023/10/17 05:02:13;;;;;;;4.35;2.60;;;;;;;2.11;78.45;96999.13;5138083;27;20051;-63
2023/10/17 05:05:38;;;;;;;5.95;2.22;;;;;;;2.19;78.37;97004.31;5137963;27;20047;-62
2023/10/17 05:07:53;;;;;;;5.15;2.60;;;;;;;2.11;78.73;97000.88;5137876;27;20047;-62
2023/10/17 06:19:15;;;;;;;3.30;1.33;;;;;;;24.09;27.88;97029.97;5136542;27;20062;-62
2023/10/17 06:22:59;;;;;;;3.55;1.30;;;;;;;24.01;26.96;97029.75;5136480;27;20512;-63
2023/10/17 06:30:34;;;;;;;3.50;1.38;;;;;;;25.18;25.61;97036.59;5136421;27;20119;-62
2023/10/17 06:33:17;;;;;;;3.22;1.60;;;;;;;25.40;25.26;97047.19;5136077;27;20086;-62
2023/10/17 06:35:52;;;;;;;2.63;1.25;;;;;;;25.51;25.32;97036.34;5136225;27;20055;-61
2023/10/17 06:38:19;;;;;;;3.40;1.60;;;;;;;25.64;25.08;97045.97;5136137;27;20428;-63
2023/10/17 06:40:51;;;;;;;5.95;2.05;;;;;;;25.20;25.31;97041.81;5136094;27;20047;-61
2023/10/17 06:43:27;;;;;;;5.28;1.77;;;;;;;25.28;25.74;97036.59;5136068;27;20051;-62
2023/10/17 06:45:57;;;;;;;6.60;1.73;;;;;;;25.58;25.19;97047.31;5136078;27;20047;-62
2023/10/17 06:48:32;;;;;;;4.97;1.52;;;;;;;25.57;25.27;97045.63;5136122;27;20043;-62
2023/10/17 06:51:29;;;;;;;5.07;1.10;;;;;;;25.63;25.22;97037.06;5135941;27;20043;-62
2023/10/17 06:54:05;;;;;;;1.83;0.93;;;;;;;26.31;24.27;97034.44;5135961;27;20055;-62
2023/10/17 06:56:38;;;;;;;5.90;1.52;;;;;;;26.58;24.18;97032.81;5136021;27;20043;-62
2023/10/17 06:59:21;;;;;;;1.63;0.95;;;;;;;27.08;23.17;97033.41;5135805;27;20405;-62
2023/10/17 07:02:03;;;;;;;2.88;1.23;;;;;;;27.52;22.69;97032.66;5135816;27;20389;-62
2023/10/17 07:04:32;;;;;;;1.77;1.00;;;;;;;27.42;23.02;97035.41;5135603;27;20047;-62
2023/10/17 07:07:03;;;;;;;2.53;1.20;;;;;;;27.48;22.95;97044.72;5135581;27;20395;-63
2023/10/17 07:09:37;;;;;;;6.63;1.38;;;;;;;27.69;22.78;97044.41;5135574;27;20054;-62
2023/10/17 07:12:07;;;;;;;2.75;1.58;;;;;;;27.82;22.29;97041.34;5134436;27;20458;-63
2023/10/17 07:14:40;;;;;;;3.35;1.40;;;;;;;27.83;21.96;97039.50;5135541;27;20047;-62
2023/10/17 07:17:25;;;;;;;2.53;1.48;;;;;;;27.54;22.46;97038.72;5135428;27;20040;-62
2023/10/17 07:19:58;;;;;;;3.85;1.38;;;;;;;27.26;22.55;97033.41;5135291;27;20055;-63
2023/10/17 07:22:35;;;;;;;2.28;1.30;;;;;;;26.84;23.04;97042.81;5135321;27;20043;-62
2023/10/17 07:25:03;;;;;;;3.75;1.65;;;;;;;26.69;22.76;97037.97;5135315;27;20508;-62
2023/10/17 07:27:35;;;;;;;3.03;1.15;;;;;;;26.57;22.88;97040.00;5135149;27;20051;-62
2023/10/17 07:30:10;;;;;;;5.53;1.02;;;;;;;26.15;22.65;97038.53;5135224;27;20069;-62
2023/10/17 07:32:46;;;;;;;3.85;1.10;;;;;;;26.01;22.51;97034.50;5134905;27;20054;-62
2023/10/17 07:35:16;;;;;;;1.77;0.90;;;;;;;25.79;22.62;97036.50;5135016;27;20047;-62
2023/10/17 07:37:54;;;;;;;1.58;1.13;;;;;;;25.60;22.78;97035.53;5135007;27;20043;-62
2023/10/17 07:40:31;;;;;;;1.33;1.10;;;;;;;24.94;23.19;97026.28;5134958;27;20129;-62
2023/10/17 07:43:01;;;;;;;2.08;0.98;;;;;;;24.14;24.37;97027.75;5134955;27;20047;-62
2023/10/17 07:45:38;;;;;;;1.90;0.90;;;;;;;23.57;25.17;97017.41;5134880;27;20049;-62
2023/10/17 07:48:19;;;;;;;3.30;0.95;;;;;;;23.14;25.58;97019.94;5134888;27;20118;-62
2023/10/17 07:50:50;;;;;;;3.08;0.95;;;;;;;22.39;27.18;97027.69;5134883;27;20069;-62
2023/10/17 07:53:19;;;;;;;;;;;;;;;21.95;27.60;97023.03;5135262;27;20050;-62
2023/10/17 07:55:48;;;;;;;1.52;0.80;;;;;;;21.51;27.98;97023.59;5134748;27;19923;-62
2023/10/17 07:58:35;;;;;;;3.03;1.00;;;;;;;21.08;28.25;97017.84;5134728;27;20043;-62
2023/10/17 08:01:07;;;;;;;4.10;1.02;;;;;;;20.81;29.16;97015.38;5134705;27;20146;-62
2023/10/17 08:03:39;;;;;;;2.25;1.00;;;;;;;20.70;28.68;97013.47;5134518;27;20047;-62
2023/10/17 08:06:08;;;;;;;3.70;0.90;;;;;;;20.23;29.44;96999.97;5134418;27;20091;-62
2023/10/17 08:08:42;;;;;;;3.90;1.00;;;;;;;20.21;29.75;97000.09;5134516;27;20051;-62
2023/10/17 08:11:25;;;;;;;2.15;0.70;;;;;;;20.11;29.75;96988.41;5134467;27;20058;-62
2023/10/17 08:13:52;;;;;;;3.10;1.38;;;;;;;19.87;29.86;96999.75;5134486;27;20051;-62
2023/10/17 08:16:24;;;;;;;2.80;0.90;;;;;;;19.34;29.96;96985.56;5134474;27;20079;-61
2023/10/17 08:18:58;;;;;;;1.70;1.08;;;;;;;19.53;30.73;96976.34;5134251;27;20100;-62
2023/10/17 08:21:36;;;;;;;2.20;0.90;;;;;;;19.67;30.41;96981.59;5134325;27;20057;-62
2023/10/17 08:24:03;;;;;;;2.10;1.10;;;;;;;19.60;29.77;96984.75;5133945;27;20051;-62
2023/10/17 08:26:32;;;;;;;2.33;0.90;;;;;;;19.66;29.38;96987.00;5134158;27;20043;-62
2023/10/17 08:29:00;;;;;;;1.17;1.00;;;;;;;19.80;29.33;96991.34;5134223;27;20092;-63
2023/10/17 08:31:35;;;;;;;2.85;1.00;;;;;;;19.60;28.55;96982.09;5133887;27;20046;-62
2023/10/17 08:34:12;;;;;;;1.50;0.77;;;;;;;19.33;28.77;96981.22;5134125;27;20126;-62
2023/10/17 08:36:48;;;;;;;2.08;0.93;;;;;;;19.25;29.39;96981.72;5134152;28;20047;-62
2023/10/17 08:39:51;;;;;;;1.77;1.10;;;;;;;19.08;29.72;96982.81;5134027;27;20043;-62
2023/10/17 08:42:30;;;;;;;1.63;0.75;;;;;;;18.82;29.25;96978.22;5134023;27;20050;-62
2023/10/17 08:44:57;;;;;;;1.45;0.80;;;;;;;18.81;29.49;96987.16;5134056;28;20134;-62
2023/10/17 08:47:30;;;;;;;3.83;0.88;;;;;;;18.74;29.58;96999.09;5133939;27;20495;-62
2023/10/17 08:50:01;;;;;;;2.75;1.13;;;;;;;18.64;29.24;96996.19;5133995;27;20050;-62
2023/10/17 08:52:31;;;;;;;1.10;0.73;;;;;;;18.30;27.86;96985.03;5134019;27;20484;-62
2023/10/17 08:54:58;;;;;;;6.22;0.82;;;;;;;18.48;28.61;96990.16;5133983;28;20062;-62
2023/10/17 08:57:26;;;;;;;6.55;0.82;;;;;;;18.53;29.64;96990.69;5133746;27;20063;-62
2023/10/17 09:02:43;;;;;;;2.80;0.80;;;;;;;18.19;30.47;96981.28;5133974;27;20412;-62
2023/10/17 09:05:18;;;;;;;1.33;1.00;;;;;;;18.11;30.42;96964.16;5133912;27;20055;-61
2023/10/17 09:07:47;;;;;;;5.43;1.08;;;;;;;18.20;30.69;96974.19;5133856;27;20051;-62
2023/10/17 09:10:21;;;;;;;1.83;0.85;;;;;;;18.37;30.89;96975.81;5133720;27;20138;-61
2023/10/17 09:15:48;;;;;;;1.23;0.93;;;;;;;18.25;31.37;96958.88;5133460;27;20055;-62
2023/10/17 09:18:22;;;;;;;2.35;0.93;;;;;;;18.39;30.92;96960.66;5133664;27;20100;-62
2023/10/17 09:20:50;;;;;;;1.90;0.98;;;;;;;18.44;30.16;96957.72;5133680;27;20040;-62
2023/10/17 09:23:24;;;;;;;4.45;1.02;;;;;;;18.44;30.70;96945.34;5133735;27;20043;-62
2023/10/17 09:25:55;;;;;;;1.15;0.85;;;;;;;18.74;29.41;96939.94;5133720;27;20111;-62
2023/10/17 09:28:24;;;;;;;3.28;1.10;;;;;;;18.27;29.41;96933.16;5133613;27;20100;-62
2023/10/17 09:31:02;;;;;;;1.08;0.80;;;;;;;18.01;30.04;96942.69;5133741;27;20381;-61
2023/10/17 09:33:32;;;;;;;1.33;0.90;;;;;;;18.26;29.92;96930.59;5092703;28;20048;-62
2023/10/17 09:36:00;;;;;;;1.95;0.88;;;;;;;18.27;31.10;96927.03;5094551;28;20051;-61
2023/10/17 09:38:28;;;;;;;1.88;0.80;;;;;;;18.24;32.31;96924.56;5096218;28;20048;-62
2023/10/17 09:40:59;;;;;;;2.92;1.00;;;;;;;18.46;31.88;96921.41;5096408;28;20044;-61
2023/10/17 09:43:26;;;;;;;3.42;1.02;;;;;;;18.52;31.97;96913.06;5096308;28;20097;-61
2023/10/17 09:45:53;;;;;;;2.33;0.80;;;;;;;18.26;31.55;96910.28;5096353;28;20075;-62
2023/10/17 09:48:28;;;;;;;4.03;1.30;;;;;;;17.69;32.98;96911.97;5096278;28;20043;-62
2023/10/17 09:50:58;;;;;;;1.60;1.00;;;;;;;17.74;34.21;96903.75;5096261;28;20390;-61
2023/10/17 09:53:31;;;;;;;5.65;1.05;;;;;;;17.94;33.36;96902.50;5096137;28;20490;-62
2023/10/17 09:56:01;;;;;;;3.03;0.98;;;;;;;17.80;32.99;96884.88;5096119;28;20448;-61
2023/10/17 09:58:35;;;;;;;3.33;1.02;;;;;;;17.54;34.06;96889.97;5095889;28;20052;-62
2023/10/17 10:01:06;;;;;;;2.38;1.00;;;;;;;17.51;34.54;96882.19;5095963;28;20054;-61
2023/10/17 10:03:37;;;;;;;5.72;1.20;;;;;;;17.50;34.54;96885.81;5096042;28;20069;-61
2023/10/17 10:06:31;;;;;;;2.75;1.10;;;;;;;17.75;34.25;96873.72;5095849;28;20090;-61
2023/10/17 10:09:27;;;;;;;1.85;0.90;;;;;;;17.84;34.34;96867.84;5081668;28;20054;-61
2023/10/17 10:11:58;;;;;;;1.27;0.90;;;;;;;17.64;33.10;96879.69;5095874;28;20040;-62
2023/10/17 10:14:50;;;;;;;1.63;0.95;;;;;;;17.57;34.13;96859.84;5095932;28;20040;-62
2023/10/17 10:17:17;;;;;;;3.05;0.98;;;;;;;17.62;33.50;96861.25;5080899;28;20554;-61
2023/10/17 10:20:01;;;;;;;4.70;1.17;;;;;;;17.28;33.96;96864.16;5095568;28;20048;-62
2023/10/17 10:22:52;;;;;;;3.10;1.15;;;;;;;16.94;35.02;96860.84;5095562;28;20044;-62
2023/10/17 10:25:20;;;;;;;3.50;1.00;;;;;;;16.84;35.96;96868.47;5095509;28;20121;-62
2023/10/17 10:27:50;;;;;;;2.08;1.10;;;;;;;16.96;35.75;96851.03;5095543;28;20048;-62
2023/10/17 10:30:35;;;;;;;4.75;1.30;;;;;;;17.13;35.83;96843.94;5095398;28;20048;-62
2023/10/17 10:33:02;;;;;;;2.60;1.10;;;;;;;17.17;35.84;96848.09;5129259;27;20061;-61
2023/10/17 10:35:32;;;;;;;2.13;1.08;;;;;;;17.08;36.01;96841.56;5136302;27;20429;-62
2023/10/17 10:38:01;;;;;;;4.40;1.52;;;;;;;17.15;35.88;96848.19;5136388;27;20047;-62
2023/10/17 10:40:32;;;;;;;4.03;1.17;;;;;;;17.27;35.35;96838.66;5136226;27;20098;-62
2023/10/17 10:43:01;;;;;;;1.27;0.82;;;;;;;17.16;35.11;96826.09;5136259;27;20399;-62
2023/10/17 10:45:31;;;;;;;9.82;1.35;;;;;;;17.12;35.60;96827.22;5136135;27;20043;-62
2023/10/17 10:47:59;;;;;;;4.22;1.13;;;;;;;17.05;35.73;96813.50;5135831;27;20104;-62
2023/10/17 10:50:29;;;;;;;4.05;1.13;;;;;;;16.82;35.39;96816.69;5135972;27;20055;-62
2023/10/17 10:52:58;;;;;;;2.55;1.00;;;;;;;16.56;35.67;96814.63;5135890;27;20074;-62
2023/10/17 10:55:27;;;;;;;3.00;1.00;;;;;;;16.49;36.78;96810.59;5135866;27;20047;-62
2023/10/17 10:57:55;;;;;;;2.25;1.17;;;;;;;16.60;36.68;96820.56;5135808;27;20043;-62
2023/10/17 11:00:22;;;;;;;4.20;1.30;;;;;;;16.50;36.65;96823.72;5135656;27;20059;-62
2023/10/17 11:02:49;;;;;;;2.63;1.25;;;;;;;16.41;36.34;96808.44;5135667;27;20054;-62
2023/10/17 11:05:16;;;;;;;4.68;1.30;;;;;;;16.47;37.06;96791.38;5135774;27;20151;-62
2023/10/17 11:07:45;;;;;;;6.43;1.02;;;;;;;16.66;36.93;96785.88;5135525;27;20489;-62
2023/10/17 11:10:13;;;;;;;9.70;1.55;;;;;;;16.74;36.78;96786.25;5135496;27;20082;-61
2023/10/17 11:12:53;;;;;;;4.43;1.08;;;;;;;16.68;36.28;96789.28;5135522;27;20496;-62
2023/10/17 11:15:26;;;;;;;3.53;1.50;;;;;;;16.66;37.12;96793.78;5135324;27;20047;-62
2023/10/17 11:18:22;;;;;;;4.60;1.42;;;;;;;16.75;36.66;96787.13;5135516;27;20047;-62
2023/10/17 11:20:55;;;;;;;3.30;1.13;;;;;;;16.88;36.34;96782.81;5135411;27;20434;-62
2023/10/17 11:23:26;;;;;;;2.72;1.67;;;;;;;17.04;36.40;96790.66;5135284;27;20049;-62
2023/10/17 11:26:00;;;;;;;3.20;1.15;;;;;;;16.99;36.13;96774.25;5135276;27;20039;-62
2023/10/17 11:28:28;;;;;;;6.03;1.30;;;;;;;16.63;37.20;96780.78;5135239;27;20043;-61
2023/10/17 11:30:58;;;;;;;3.75;1.50;;;;;;;16.51;37.10;96784.97;5135236;27;20047;-62
2023/10/17 11:33:37;;;;;;;5.45;1.20;;;;;;;16.26;37.61;96771.41;5134983;27;20061;-62
2023/10/17 11:36:12;;;;;;;4.22;1.20;;;;;;;16.34;37.58;96773.59;5135174;27;20049;-62
2023/10/17 11:38:40;;;;;;;6.28;1.85;;;;;;;16.40;37.42;96778.53;5135017;27;20049;-62
2023/10/17 11:41:08;;;;;;;1.40;0.90;;;;;;;16.47;37.01;96781.69;5134957;27;20150;-62
2023/10/17 11:43:42;;;;;;;1.73;1.23;;;;;;;16.31;36.94;96771.13;5135013;27;20127;-62
2023/10/17 11:46:12;;;;;;;3.60;1.30;;;;;;;16.28;38.12;96771.31;5134826;27;20096;-61
2023/10/17 11:48:44;;;;;;;2.83;1.05;;;;;;;16.37;38.06;96762.00;5135100;27;20040;-62
2023/10/17 11:51:16;;;;;;;4.85;1.30;;;;;;;16.58;37.64;96769.66;5134845;27;20489;-62
2023/10/17 11:54:04;;;;;;;3.88;1.02;;;;;;;16.78;36.54;96771.09;5134840;27;20075;-62
2023/10/17 11:56:31;;;;;;;5.15;1.17;;;;;;;16.93;36.62;96754.34;5134691;27;20435;-62
2023/10/17 11:59:01;;;;;;;2.85;1.13;;;;;;;16.91;36.33;96745.63;5134047;27;20047;-62
2023/10/17 12:01:28;;;;;;;12.50;1.98;;;;;;;16.97;35.90;96754.13;5134688;27;20074;-62
2023/10/17 12:03:57;;;;;;;3.90;1.13;;;;;;;16.97;36.14;96751.47;5134624;27;20511;-62
2023/10/17 12:06:26;;;;;;;2.00;1.15;;;;;;;17.04;36.11;96750.19;5134587;27;20400;-62
2023/10/17 12:08:54;;;;;;;6.45;1.25;;;;;;;17.06;35.80;96753.56;5134537;27;20099;-62
2023/10/17 12:11:24;;;;;;;3.22;1.17;;;;;;;16.98;36.32;96755.84;5134489;27;20087;-62
2023/10/17 12:13:51;;;;;;;5.03;1.23;;;;;;;17.02;35.66;96752.06;5134394;27;20047;-62
2023/10/17 12:16:23;;;;;;;4.32;1.20;;;;;;;16.98;35.91;96751.38;5134392;27;20071;-62
2023/10/17 12:18:52;;;;;;;4.78;1.20;;;;;;;17.00;36.07;96748.66;5134407;27;20059;-62
2023/10/17 12:21:19;;;;;;;4.68;1.55;;;;;;;16.95;35.07;96746.31;5134198;27;20051;-62
2023/10/17 12:23:47;;;;;;;1.50;1.10;;;;;;;16.75;35.32;96748.34;5134315;27;20195;-62
2023/10/17 12:26:19;;;;;;;5.82;1.20;;;;;;;16.66;34.86;96739.19;5134084;27;20039;-62
2023/10/17 12:28:46;;;;;;;3.58;1.20;;;;;;;16.58;34.81;96733.50;5134218;27;20484;-62
2023/10/17 12:31:16;;;;;;;5.43;1.23;;;;;;;16.60;34.94;96736.06;5133841;27;20362;-62
2023/10/17 12:33:46;;;;;;;5.78;1.63;;;;;;;16.57;35.91;96729.19;5134098;27;20450;-62
2023/10/17 12:36:14;;;;;;;6.07;1.50;;;;;;;16.59;36.50;96729.09;5134073;27;20043;-62
2023/10/17 12:38:41;;;;;;;3.60;1.58;;;;;;;16.53;36.28;96733.78;5134215;27;20104;-62
2023/10/17 12:41:09;;;;;;;4.40;1.10;;;;;;;16.54;36.13;96724.94;5134116;27;20112;-62
2023/10/17 12:43:36;;;;;;;1.40;1.20;;;;;;;16.47;35.61;96728.03;5134017;27;20050;-62
2023/10/17 12:46:04;;;;;;;9.43;1.50;;;;;;;16.26;35.01;96728.34;5133939;27;20047;-62
2023/10/17 12:48:31;;;;;;;4.80;1.13;;;;;;;16.28;35.39;96722.03;5134024;28;20428;-62
2023/10/17 12:50:59;;;;;;;3.75;1.20;;;;;;;16.38;35.45;96721.50;5133951;28;20046;-62
2023/10/17 12:53:26;;;;;;;2.28;1.10;;;;;;;16.37;35.66;96717.13;5133928;27;20043;-62
2023/10/17 12:55:55;;;;;;;3.80;0.93;;;;;;;16.41;35.37;96713.41;5133950;27;20039;-61
2023/10/17 12:58:22;;;;;;;2.67;1.20;;;;;;;16.34;36.19;96707.63;5133884;27;20051;-61
2023/10/17 13:00:50;;;;;;;2.60;1.10;;;;;;;16.34;35.26;96707.63;5133888;28;20134;-62
2023/10/17 13:03:19;;;;;;;1.30;0.80;;;;;;;16.28;35.81;96700.91;5134078;27;20381;-61
2023/10/17 13:05:48;;;;;;;6.65;1.27;;;;;;;16.18;36.17;96689.19;5133810;28;20047;-62
2023/10/17 13:08:17;;;;;;;3.80;1.48;;;;;;;16.20;35.98;96704.94;5133824;28;20481;-61
2023/10/17 13:10:44;;;;;;;11.82;1.27;;;;;;;16.18;35.79;96705.03;5137074;27;20043;-62
2023/10/17 13:13:12;;;;;;;3.55;1.05;;;;;;;16.04;35.58;96697.91;5137994;27;20446;-61
2023/10/17 13:15:39;;;;;;;6.38;1.10;;;;;;;16.06;36.47;96698.69;5137862;27;20096;-62
2023/10/17 13:18:10;;;;;;;3.13;0.95;;;;;;;16.10;36.34;96702.84;5137801;27;20098;-61
2023/10/17 13:20:37;;;;;;;3.00;1.50;;;;;;;16.13;35.84;96701.78;5137756;27;20385;-61
2023/10/17 13:23:06;;;;;;;5.03;1.35;;;;;;;16.09;35.89;96711.69;5137752;27;20051;-62
2023/10/17 13:25:38;;;;;;;2.83;1.15;;;;;;;16.09;36.70;96711.69;5137672;27;20099;-62